sensor_id;sensor_type;location;lat;lon;timestamp;P1;durP1;ratioP1;P2;durP2;ratioP2
57441;SDS011;43284;47.042;15.498;2023-10-19T00:00:47;30.85;;;13.90;;
57441;SDS011;43284;47.042;15.498;2023-10-19T00:03:15;31.00;;;13.25;;
57441;SDS011;43284;47.042;15.498;2023-10-19T00:05:42;31.70;;;13.57;;
57441;SDS011;43284;47.042;15.498;2023-10-19T00:08:10;30.67;;;12.65;;
57441;SDS011;43284;47.042;15.498;2023-10-19T00:10:49;27.05;;;11.13;;
57441;SDS011;43284;47.042;15.498;2023-10-19T00:13:38;27.25;;;12.10;;
57441;SDS011;43284;47.042;15.498;2023-10-19T00:16:05;32.95;;;14.32;;
57441;SDS011;43284;47.042;15.498;2023-10-19T00:18:48;31.27;;;14.18;;
57441;SDS011;43284;47.042;15.498;2023-10-19T00:21:15;36.50;;;14.32;;
57441;SDS011;43284;47.042;15.498;2023-10-19T00:23:54;33.53;;;13.68;;
57441;SDS011;43284;47.042;15.498;2023-10-19T00:26:30;31.95;;;13.57;;
57441;SDS011;43284;47.042;15.498;2023-10-19T00:28:55;31.05;;;13.02;;
57441;SDS011;43284;47.042;15.498;2023-10-19T00:31:22;34.63;;;13.73;;
57441;SDS011;43284;47.042;15.498;2023-10-19T00:33:52;38.20;;;14.32;;
57441;SDS011;43284;47.042;15.498;2023-10-19T00:36:22;35.22;;;14.13;;
57441;SDS011;43284;47.042;15.498;2023-10-19T00:38:48;31.67;;;14.02;;
57441;SDS011;43284;47.042;15.498;2023-10-19T00:41:15;31.88;;;13.63;;
57441;SDS011;43284;47.042;15.498;2023-10-19T00:43:54;31.48;;;13.40;;
57441;SDS011;43284;47.042;15.498;2023-10-19T00:46:36;33.15;;;12.80;;
57441;SDS011;43284;47.042;15.498;2023-10-19T00:49:08;32.97;;;14.15;;
57441;SDS011;43284;47.042;15.498;2023-10-19T00:51:38;31.00;;;13.43;;
57441;SDS011;43284;47.042;15.498;2023-10-19T00:56:41;31.42;;;13.15;;
57441;SDS011;43284;47.042;15.498;2023-10-19T00:59:13;30.42;;;12.43;;
57441;SDS011;43284;47.042;15.498;2023-10-19T01:01:44;30.33;;;12.65;;
57441;SDS011;43284;47.042;15.498;2023-10-19T01:04:13;29.92;;;12.98;;
57441;SDS011;43284;47.042;15.498;2023-10-19T01:06:47;40.50;;;14.68;;
57441;SDS011;43284;47.042;15.498;2023-10-19T01:09:37;36.42;;;15.60;;
57441;SDS011;43284;47.042;15.498;2023-10-19T01:12:04;30.67;;;14.10;;
57441;SDS011;43284;47.042;15.498;2023-10-19T01:15:02;26.40;;;12.95;;
57441;SDS011;43284;47.042;15.498;2023-10-19T01:17:48;31.15;;;13.10;;
57441;SDS011;43284;47.042;15.498;2023-10-19T01:20:22;37.95;;;15.80;;
57441;SDS011;43284;47.042;15.498;2023-10-19T01:23:08;36.22;;;14.75;;
57441;SDS011;43284;47.042;15.498;2023-10-19T01:28:28;35.42;;;14.32;;
57441;SDS011;43284;47.042;15.498;2023-10-19T01:31:24;32.42;;;13.93;;
57441;SDS011;43284;47.042;15.498;2023-10-19T01:33:52;33.85;;;14.55;;
57441;SDS011;43284;47.042;15.498;2023-10-19T01:36:25;27.77;;;12.55;;
57441;SDS011;43284;47.042;15.498;2023-10-19T01:38:52;28.75;;;13.07;;
57441;SDS011;43284;47.042;15.498;2023-10-19T01:41:25;24.52;;;11.90;;
57441;SDS011;43284;47.042;15.498;2023-10-19T01:43:52;26.55;;;12.48;;
57441;SDS011;43284;47.042;15.498;2023-10-19T01:46:19;30.17;;;12.52;;
57441;SDS011;43284;47.042;15.498;2023-10-19T01:48:59;25.45;;;10.70;;
57441;SDS011;43284;47.042;15.498;2023-10-19T01:51:27;26.10;;;12.35;;
57441;SDS011;43284;47.042;15.498;2023-10-19T01:53:55;30.50;;;11.73;;
57441;SDS011;43284;47.042;15.498;2023-10-19T01:56:21;36.47;;;14.57;;
57441;SDS011;43284;47.042;15.498;2023-10-19T01:58:48;30.08;;;12.27;;
57441;SDS011;43284;47.042;15.498;2023-10-19T02:01:16;26.83;;;12.40;;
57441;SDS011;43284;47.042;15.498;2023-10-19T02:04:00;30.75;;;12.63;;
57441;SDS011;43284;47.042;15.498;2023-10-19T02:06:29;24.83;;;10.93;;
57441;SDS011;43284;47.042;15.498;2023-10-19T02:08:59;26.58;;;12.27;;
57441;SDS011;43284;47.042;15.498;2023-10-19T02:11:34;34.60;;;13.82;;
57441;SDS011;43284;47.042;15.498;2023-10-19T02:14:03;31.48;;;13.23;;
57441;SDS011;43284;47.042;15.498;2023-10-19T02:16:38;32.25;;;14.18;;
57441;SDS011;43284;47.042;15.498;2023-10-19T02:19:04;34.65;;;13.77;;
57441;SDS011;43284;47.042;15.498;2023-10-19T02:21:29;28.42;;;12.20;;
57441;SDS011;43284;47.042;15.498;2023-10-19T02:24:03;33.70;;;12.90;;
57441;SDS011;43284;47.042;15.498;2023-10-19T02:26:29;33.08;;;13.02;;
57441;SDS011;43284;47.042;15.498;2023-10-19T02:28:56;28.60;;;11.95;;
57441;SDS011;43284;47.042;15.498;2023-10-19T02:31:23;26.00;;;12.10;;
57441;SDS011;43284;47.042;15.498;2023-10-19T02:33:53;29.33;;;12.38;;
57441;SDS011;43284;47.042;15.498;2023-10-19T02:36:28;26.95;;;11.18;;
57441;SDS011;43284;47.042;15.498;2023-10-19T02:38:59;25.30;;;11.38;;
57441;SDS011;43284;47.042;15.498;2023-10-19T02:41:28;28.48;;;11.38;;
57441;SDS011;43284;47.042;15.498;2023-10-19T02:43:54;27.10;;;12.60;;
57441;SDS011;43284;47.042;15.498;2023-10-19T02:46:29;27.67;;;11.38;;
57441;SDS011;43284;47.042;15.498;2023-10-19T02:49:01;29.15;;;13.35;;
57441;SDS011;43284;47.042;15.498;2023-10-19T02:51:28;24.02;;;10.90;;
57441;SDS011;43284;47.042;15.498;2023-10-19T02:53:57;28.27;;;11.63;;
57441;SDS011;43284;47.042;15.498;2023-10-19T02:56:27;31.17;;;12.18;;
57441;SDS011;43284;47.042;15.498;2023-10-19T02:58:55;25.52;;;10.65;;
57441;SDS011;43284;47.042;15.498;2023-10-19T03:01:27;27.77;;;11.82;;
57441;SDS011;43284;47.042;15.498;2023-10-19T03:03:59;28.00;;;11.32;;
57441;SDS011;43284;47.042;15.498;2023-10-19T03:06:27;25.98;;;10.75;;
57441;SDS011;43284;47.042;15.498;2023-10-19T03:08:58;23.75;;;10.57;;
57441;SDS011;43284;47.042;15.498;2023-10-19T03:11:29;27.60;;;11.57;;
57441;SDS011;43284;47.042;15.498;2023-10-19T03:13:54;25.75;;;10.45;;
57441;SDS011;43284;47.042;15.498;2023-10-19T03:16:22;22.45;;;10.45;;
57441;SDS011;43284;47.042;15.498;2023-10-19T03:18:48;28.30;;;10.20;;
57441;SDS011;43284;47.042;15.498;2023-10-19T03:21:16;28.60;;;12.05;;
57441;SDS011;43284;47.042;15.498;2023-10-19T03:23:44;35.42;;;12.55;;
57441;SDS011;43284;47.042;15.498;2023-10-19T03:26:09;27.67;;;11.88;;
57441;SDS011;43284;47.042;15.498;2023-10-19T03:28:56;27.48;;;11.68;;
57441;SDS011;43284;47.042;15.498;2023-10-19T03:31:32;28.25;;;11.10;;
57441;SDS011;43284;47.042;15.498;2023-10-19T03:33:58;27.17;;;10.25;;
57441;SDS011;43284;47.042;15.498;2023-10-19T03:36:27;29.30;;;11.32;;
57441;SDS011;43284;47.042;15.498;2023-10-19T03:38:53;24.33;;;10.20;;
57441;SDS011;43284;47.042;15.498;2023-10-19T03:41:20;23.77;;;10.88;;
57441;SDS011;43284;47.042;15.498;2023-10-19T03:43:55;28.33;;;12.70;;
57441;SDS011;43284;47.042;15.498;2023-10-19T03:46:22;28.10;;;11.63;;
57441;SDS011;43284;47.042;15.498;2023-10-19T03:48:56;36.83;;;14.98;;
57441;SDS011;43284;47.042;15.498;2023-10-19T03:51:36;32.72;;;12.45;;
57441;SDS011;43284;47.042;15.498;2023-10-19T03:54:08;23.50;;;10.30;;
57441;SDS011;43284;47.042;15.498;2023-10-19T03:56:50;26.90;;;10.57;;
57441;SDS011;43284;47.042;15.498;2023-10-19T03:59:17;21.27;;;10.27;;
57441;SDS011;43284;47.042;15.498;2023-10-19T04:01:43;24.95;;;11.02;;
57441;SDS011;43284;47.042;15.498;2023-10-19T04:04:10;26.27;;;10.93;;
57441;SDS011;43284;47.042;15.498;2023-10-19T04:06:35;29.50;;;11.98;;
57441;SDS011;43284;47.042;15.498;2023-10-19T04:09:05;25.55;;;10.93;;
57441;SDS011;43284;47.042;15.498;2023-10-19T04:11:31;28.60;;;11.73;;
57441;SDS011;43284;47.042;15.498;2023-10-19T04:14:16;33.53;;;11.18;;
57441;SDS011;43284;47.042;15.498;2023-10-19T04:16:42;28.63;;;11.75;;
57441;SDS011;43284;47.042;15.498;2023-10-19T04:19:09;27.98;;;11.18;;
57441;SDS011;43284;47.042;15.498;2023-10-19T04:21:36;21.95;;;10.23;;
57441;SDS011;43284;47.042;15.498;2023-10-19T04:24:05;22.90;;;10.20;;
57441;SDS011;43284;47.042;15.498;2023-10-19T04:26:32;29.08;;;11.13;;
57441;SDS011;43284;47.042;15.498;2023-10-19T04:29:07;25.90;;;10.82;;
57441;SDS011;43284;47.042;15.498;2023-10-19T04:31:39;23.02;;;10.43;;
57441;SDS011;43284;47.042;15.498;2023-10-19T04:34:21;27.40;;;11.00;;
57441;SDS011;43284;47.042;15.498;2023-10-19T04:36:49;26.23;;;11.95;;
57441;SDS011;43284;47.042;15.498;2023-10-19T04:39:15;26.48;;;10.80;;
57441;SDS011;43284;47.042;15.498;2023-10-19T04:41:44;23.63;;;9.90;;
57441;SDS011;43284;47.042;15.498;2023-10-19T04:44:13;23.02;;;9.75;;
57441;SDS011;43284;47.042;15.498;2023-10-19T04:46:40;27.58;;;10.52;;
57441;SDS011;43284;47.042;15.498;2023-10-19T04:49:06;22.42;;;10.48;;
57441;SDS011;43284;47.042;15.498;2023-10-19T04:51:32;23.58;;;10.63;;
57441;SDS011;43284;47.042;15.498;2023-10-19T04:53:59;25.65;;;12.00;;
57441;SDS011;43284;47.042;15.498;2023-10-19T04:56:25;28.35;;;11.98;;
57441;SDS011;43284;47.042;15.498;2023-10-19T04:58:50;36.08;;;14.48;;
57441;SDS011;43284;47.042;15.498;2023-10-19T05:01:16;29.95;;;12.82;;
57441;SDS011;43284;47.042;15.498;2023-10-19T05:03:41;40.30;;;13.38;;
57441;SDS011;43284;47.042;15.498;2023-10-19T05:06:07;31.63;;;12.35;;
57441;SDS011;43284;47.042;15.498;2023-10-19T05:08:35;28.25;;;11.73;;
57441;SDS011;43284;47.042;15.498;2023-10-19T05:11:02;28.63;;;12.25;;
57441;SDS011;43284;47.042;15.498;2023-10-19T05:13:29;26.23;;;11.05;;
57441;SDS011;43284;47.042;15.498;2023-10-19T05:15:56;31.20;;;11.63;;
57441;SDS011;43284;47.042;15.498;2023-10-19T05:18:24;33.45;;;11.65;;
57441;SDS011;43284;47.042;15.498;2023-10-19T05:20:51;25.20;;;11.10;;
57441;SDS011;43284;47.042;15.498;2023-10-19T05:23:21;28.50;;;11.82;;
57441;SDS011;43284;47.042;15.498;2023-10-19T05:25:49;26.08;;;10.63;;
57441;SDS011;43284;47.042;15.498;2023-10-19T05:28:15;24.42;;;10.13;;
57441;SDS011;43284;47.042;15.498;2023-10-19T05:30:41;26.42;;;11.02;;
57441;SDS011;43284;47.042;15.498;2023-10-19T05:33:06;23.92;;;11.05;;
57441;SDS011;43284;47.042;15.498;2023-10-19T05:35:31;27.95;;;12.27;;
57441;SDS011;43284;47.042;15.498;2023-10-19T05:38:00;28.63;;;11.45;;
57441;SDS011;43284;47.042;15.498;2023-10-19T05:40:27;22.45;;;9.65;;
57441;SDS011;43284;47.042;15.498;2023-10-19T05:42:56;25.33;;;10.85;;
57441;SDS011;43284;47.042;15.498;2023-10-19T05:45:23;25.02;;;9.60;;
57441;SDS011;43284;47.042;15.498;2023-10-19T05:47:49;31.30;;;12.23;;
57441;SDS011;43284;47.042;15.498;2023-10-19T05:50:15;34.00;;;11.93;;
57441;SDS011;43284;47.042;15.498;2023-10-19T05:52:43;34.80;;;13.48;;
57441;SDS011;43284;47.042;15.498;2023-10-19T05:55:09;29.55;;;13.13;;
57441;SDS011;43284;47.042;15.498;2023-10-19T05:57:36;24.17;;;10.98;;
57441;SDS011;43284;47.042;15.498;2023-10-19T06:00:09;27.73;;;11.05;;
57441;SDS011;43284;47.042;15.498;2023-10-19T06:02:43;29.10;;;11.60;;
57441;SDS011;43284;47.042;15.498;2023-10-19T06:05:09;37.05;;;12.10;;
57441;SDS011;43284;47.042;15.498;2023-10-19T06:07:35;30.77;;;11.30;;
57441;SDS011;43284;47.042;15.498;2023-10-19T06:10:01;34.42;;;12.73;;
57441;SDS011;43284;47.042;15.498;2023-10-19T06:12:30;32.92;;;13.88;;
57441;SDS011;43284;47.042;15.498;2023-10-19T06:14:56;33.60;;;12.80;;
57441;SDS011;43284;47.042;15.498;2023-10-19T06:17:21;31.58;;;12.82;;
57441;SDS011;43284;47.042;15.498;2023-10-19T06:19:48;38.70;;;14.93;;
57441;SDS011;43284;47.042;15.498;2023-10-19T06:22:14;42.00;;;15.23;;
57441;SDS011;43284;47.042;15.498;2023-10-19T06:24:41;44.95;;;16.50;;
57441;SDS011;43284;47.042;15.498;2023-10-19T06:27:07;33.90;;;15.00;;
57441;SDS011;43284;47.042;15.498;2023-10-19T06:29:32;39.33;;;13.73;;
57441;SDS011;43284;47.042;15.498;2023-10-19T06:31:57;37.72;;;14.60;;
57441;SDS011;43284;47.042;15.498;2023-10-19T06:34:24;32.25;;;13.95;;
57441;SDS011;43284;47.042;15.498;2023-10-19T06:36:49;53.65;;;19.27;;
57441;SDS011;43284;47.042;15.498;2023-10-19T06:39:15;98.38;;;32.03;;
57441;SDS011;43284;47.042;15.498;2023-10-19T06:41:42;54.90;;;21.13;;
57441;SDS011;43284;47.042;15.498;2023-10-19T06:44:08;46.42;;;17.92;;
57441;SDS011;43284;47.042;15.498;2023-10-19T06:46:33;42.78;;;17.85;;
57441;SDS011;43284;47.042;15.498;2023-10-19T06:49:01;42.17;;;15.90;;
57441;SDS011;43284;47.042;15.498;2023-10-19T06:51:26;40.40;;;16.77;;
57441;SDS011;43284;47.042;15.498;2023-10-19T06:53:52;47.00;;;16.10;;
57441;SDS011;43284;47.042;15.498;2023-10-19T06:56:18;37.78;;;17.05;;
57441;SDS011;43284;47.042;15.498;2023-10-19T06:58:44;40.42;;;16.65;;
57441;SDS011;43284;47.042;15.498;2023-10-19T07:01:09;36.92;;;15.73;;
57441;SDS011;43284;47.042;15.498;2023-10-19T07:03:36;39.22;;;16.13;;
57441;SDS011;43284;47.042;15.498;2023-10-19T07:06:03;41.95;;;17.25;;
57441;SDS011;43284;47.042;15.498;2023-10-19T07:08:29;39.92;;;15.82;;
57441;SDS011;43284;47.042;15.498;2023-10-19T07:10:55;40.72;;;17.05;;
57441;SDS011;43284;47.042;15.498;2023-10-19T07:13:20;43.53;;;17.98;;
57441;SDS011;43284;47.042;15.498;2023-10-19T07:15:47;44.63;;;17.92;;
57441;SDS011;43284;47.042;15.498;2023-10-19T07:18:14;41.47;;;16.52;;
57441;SDS011;43284;47.042;15.498;2023-10-19T07:20:40;35.55;;;16.02;;
57441;SDS011;43284;47.042;15.498;2023-10-19T07:23:07;36.63;;;16.52;;
57441;SDS011;43284;47.042;15.498;2023-10-19T07:25:43;39.25;;;15.35;;
57441;SDS011;43284;47.042;15.498;2023-10-19T07:28:24;36.47;;;15.23;;
57441;SDS011;43284;47.042;15.498;2023-10-19T07:30:52;38.75;;;16.20;;
57441;SDS011;43284;47.042;15.498;2023-10-19T07:33:18;37.33;;;16.48;;
57441;SDS011;43284;47.042;15.498;2023-10-19T07:35:47;42.20;;;15.85;;
57441;SDS011;43284;47.042;15.498;2023-10-19T07:38:20;31.42;;;14.43;;
57441;SDS011;43284;47.042;15.498;2023-10-19T07:40:47;32.25;;;13.50;;
57441;SDS011;43284;47.042;15.498;2023-10-19T07:43:13;29.42;;;12.93;;
57441;SDS011;43284;47.042;15.498;2023-10-19T07:45:39;33.67;;;13.98;;
57441;SDS011;43284;47.042;15.498;2023-10-19T07:48:05;25.23;;;11.82;;
57441;SDS011;43284;47.042;15.498;2023-10-19T07:50:31;29.58;;;12.30;;
57441;SDS011;43284;47.042;15.498;2023-10-19T07:53:01;30.65;;;11.60;;
57441;SDS011;43284;47.042;15.498;2023-10-19T07:55:29;25.90;;;11.55;;
57441;SDS011;43284;47.042;15.498;2023-10-19T07:57:58;23.50;;;10.70;;
57441;SDS011;43284;47.042;15.498;2023-10-19T08:00:31;24.83;;;12.15;;
57441;SDS011;43284;47.042;15.498;2023-10-19T08:03:00;29.50;;;13.40;;
57441;SDS011;43284;47.042;15.498;2023-10-19T08:05:26;28.10;;;12.65;;
57441;SDS011;43284;47.042;15.498;2023-10-19T08:07:52;30.23;;;13.48;;
57441;SDS011;43284;47.042;15.498;2023-10-19T08:10:18;28.95;;;13.63;;
57441;SDS011;43284;47.042;15.498;2023-10-19T08:12:46;24.55;;;12.43;;
57441;SDS011;43284;47.042;15.498;2023-10-19T08:15:13;30.42;;;12.25;;
57441;SDS011;43284;47.042;15.498;2023-10-19T08:17:44;23.30;;;11.93;;
57441;SDS011;43284;47.042;15.498;2023-10-19T08:20:12;28.75;;;11.30;;
57441;SDS011;43284;47.042;15.498;2023-10-19T08:22:42;22.25;;;10.00;;
57441;SDS011;43284;47.042;15.498;2023-10-19T08:25:13;24.98;;;9.63;;
57441;SDS011;43284;47.042;15.498;2023-10-19T08:27:42;20.42;;;11.20;;
57441;SDS011;43284;47.042;15.498;2023-10-19T08:30:13;26.35;;;11.15;;
57441;SDS011;43284;47.042;15.498;2023-10-19T08:32:40;22.35;;;10.35;;
57441;SDS011;43284;47.042;15.498;2023-10-19T08:35:07;22.70;;;11.02;;
57441;SDS011;43284;47.042;15.498;2023-10-19T08:37:37;20.88;;;10.15;;
57441;SDS011;43284;47.042;15.498;2023-10-19T08:40:04;20.40;;;11.00;;
57441;SDS011;43284;47.042;15.498;2023-10-19T08:42:31;21.65;;;9.27;;
57441;SDS011;43284;47.042;15.498;2023-10-19T08:44:57;24.95;;;9.82;;
57441;SDS011;43284;47.042;15.498;2023-10-19T08:47:24;17.70;;;8.95;;
57441;SDS011;43284;47.042;15.498;2023-10-19T08:49:51;21.23;;;9.02;;
57441;SDS011;43284;47.042;15.498;2023-10-19T08:52:19;17.33;;;8.52;;
57441;SDS011;43284;47.042;15.498;2023-10-19T08:54:47;24.05;;;8.50;;
57441;SDS011;43284;47.042;15.498;2023-10-19T08:57:13;17.15;;;8.30;;
57441;SDS011;43284;47.042;15.498;2023-10-19T08:59:39;21.92;;;9.05;;
57441;SDS011;43284;47.042;15.498;2023-10-19T09:02:05;19.45;;;8.93;;
57441;SDS011;43284;47.042;15.498;2023-10-19T09:04:32;16.42;;;9.07;;
57441;SDS011;43284;47.042;15.498;2023-10-19T09:09:35;20.08;;;8.38;;
57441;SDS011;43284;47.042;15.498;2023-10-19T09:12:04;17.20;;;8.40;;
57441;SDS011;43284;47.042;15.498;2023-10-19T09:14:34;18.40;;;8.20;;
57441;SDS011;43284;47.042;15.498;2023-10-19T09:17:01;16.20;;;8.00;;
57441;SDS011;43284;47.042;15.498;2023-10-19T09:19:42;16.48;;;7.93;;
57441;SDS011;43284;47.042;15.498;2023-10-19T09:22:10;15.48;;;7.53;;
57441;SDS011;43284;47.042;15.498;2023-10-19T09:24:44;15.55;;;7.80;;
57441;SDS011;43284;47.042;15.498;2023-10-19T09:27:11;15.10;;;7.78;;
57441;SDS011;43284;47.042;15.498;2023-10-19T09:29:38;21.65;;;7.78;;
57441;SDS011;43284;47.042;15.498;2023-10-19T09:32:04;21.10;;;8.30;;
57441;SDS011;43284;47.042;15.498;2023-10-19T09:34:31;15.77;;;7.63;;
57441;SDS011;43284;47.042;15.498;2023-10-19T09:37:02;16.08;;;7.47;;
57441;SDS011;43284;47.042;15.498;2023-10-19T09:39:31;14.20;;;6.32;;
57441;SDS011;43284;47.042;15.498;2023-10-19T09:42:09;14.48;;;7.20;;
57441;SDS011;43284;47.042;15.498;2023-10-19T09:44:40;17.17;;;6.55;;
57441;SDS011;43284;47.042;15.498;2023-10-19T09:47:09;11.48;;;6.18;;
57441;SDS011;43284;47.042;15.498;2023-10-19T09:49:43;12.00;;;6.60;;
57441;SDS011;43284;47.042;15.498;2023-10-19T09:52:09;11.98;;;6.55;;
57441;SDS011;43284;47.042;15.498;2023-10-19T09:54:50;12.20;;;6.82;;
57441;SDS011;43284;47.042;15.498;2023-10-19T09:57:25;16.45;;;6.95;;
57441;SDS011;43284;47.042;15.498;2023-10-19T09:59:57;10.98;;;6.82;;
57441;SDS011;43284;47.042;15.498;2023-10-19T10:02:53;11.35;;;6.55;;
57441;SDS011;43284;47.042;15.498;2023-10-19T10:10:44;12.05;;;6.38;;
57441;SDS011;43284;47.042;15.498;2023-10-19T10:15:55;16.73;;;6.70;;
57441;SDS011;43284;47.042;15.498;2023-10-19T10:18:40;12.13;;;6.40;;
57441;SDS011;43284;47.042;15.498;2023-10-19T10:21:21;13.77;;;5.65;;
57441;SDS011;43284;47.042;15.498;2023-10-19T10:23:52;10.93;;;5.95;;
57441;SDS011;43284;47.042;15.498;2023-10-19T10:31:45;14.73;;;6.55;;
57441;SDS011;43284;47.042;15.498;2023-10-19T10:37:14;14.70;;;5.95;;
57441;SDS011;43284;47.042;15.498;2023-10-19T10:39:40;13.68;;;6.75;;
57441;SDS011;43284;47.042;15.498;2023-10-19T10:42:06;13.48;;;5.93;;
57441;SDS011;43284;47.042;15.498;2023-10-19T10:44:40;10.10;;;5.85;;
57441;SDS011;43284;47.042;15.498;2023-10-19T10:47:08;13.27;;;6.65;;
57441;SDS011;43284;47.042;15.498;2023-10-19T10:49:45;11.18;;;6.10;;
57441;SDS011;43284;47.042;15.498;2023-10-19T10:52:28;14.38;;;6.25;;
57441;SDS011;43284;47.042;15.498;2023-10-19T10:54:55;12.07;;;6.53;;
57441;SDS011;43284;47.042;15.498;2023-10-19T10:57:21;13.10;;;6.40;;
57441;SDS011;43284;47.042;15.498;2023-10-19T11:00:00;9.50;;;5.68;;
57441;SDS011;43284;47.042;15.498;2023-10-19T11:02:26;10.15;;;5.28;;
57441;SDS011;43284;47.042;15.498;2023-10-19T11:04:51;9.10;;;5.55;;
57441;SDS011;43284;47.042;15.498;2023-10-19T11:07:17;7.10;;;4.63;;
57441;SDS011;43284;47.042;15.498;2023-10-19T11:09:47;9.15;;;5.22;;
57441;SDS011;43284;47.042;15.498;2023-10-19T11:12:13;8.48;;;5.10;;
57441;SDS011;43284;47.042;15.498;2023-10-19T11:14:55;8.70;;;4.68;;
57441;SDS011;43284;47.042;15.498;2023-10-19T11:17:24;11.07;;;5.57;;
57441;SDS011;43284;47.042;15.498;2023-10-19T11:19:54;11.18;;;5.22;;
57441;SDS011;43284;47.042;15.498;2023-10-19T11:22:22;10.35;;;5.35;;
57441;SDS011;43284;47.042;15.498;2023-10-19T11:24:50;8.73;;;4.80;;
57441;SDS011;43284;47.042;15.498;2023-10-19T11:27:24;10.48;;;5.43;;
57441;SDS011;43284;47.042;15.498;2023-10-19T11:29:56;8.75;;;4.85;;
57441;SDS011;43284;47.042;15.498;2023-10-19T11:32:23;10.07;;;4.88;;
57441;SDS011;43284;47.042;15.498;2023-10-19T11:34:51;10.38;;;4.88;;
57441;SDS011;43284;47.042;15.498;2023-10-19T11:37:20;7.80;;;4.80;;
57441;SDS011;43284;47.042;15.498;2023-10-19T11:39:46;13.45;;;5.00;;
57441;SDS011;43284;47.042;15.498;2023-10-19T11:42:12;8.88;;;4.70;;
57441;SDS011;43284;47.042;15.498;2023-10-19T11:44:38;8.85;;;5.07;;
57441;SDS011;43284;47.042;15.498;2023-10-19T11:47:04;7.93;;;4.75;;
57441;SDS011;43284;47.042;15.498;2023-10-19T11:49:30;9.93;;;4.70;;
57441;SDS011;43284;47.042;15.498;2023-10-19T11:51:56;9.25;;;4.80;;
57441;SDS011;43284;47.042;15.498;2023-10-19T11:54:22;7.20;;;4.30;;
57441;SDS011;43284;47.042;15.498;2023-10-19T11:56:48;11.82;;;4.47;;
57441;SDS011;43284;47.042;15.498;2023-10-19T11:59:14;8.10;;;3.90;;
57441;SDS011;43284;47.042;15.498;2023-10-19T12:01:40;10.98;;;4.30;;
57441;SDS011;43284;47.042;15.498;2023-10-19T12:04:07;5.50;;;3.38;;
57441;SDS011;43284;47.042;15.498;2023-10-19T12:06:34;7.05;;;4.30;;
57441;SDS011;43284;47.042;15.498;2023-10-19T12:09:00;7.32;;;3.70;;
57441;SDS011;43284;47.042;15.498;2023-10-19T12:11:36;10.05;;;4.30;;
57441;SDS011;43284;47.042;15.498;2023-10-19T12:14:01;8.38;;;4.10;;
57441;SDS011;43284;47.042;15.498;2023-10-19T12:16:29;7.65;;;4.18;;
57441;SDS011;43284;47.042;15.498;2023-10-19T12:18:54;8.65;;;4.57;;
57441;SDS011;43284;47.042;15.498;2023-10-19T12:21:20;8.13;;;4.30;;
57441;SDS011;43284;47.042;15.498;2023-10-19T12:23:52;11.90;;;4.13;;
57441;SDS011;43284;47.042;15.498;2023-10-19T12:26:20;7.25;;;4.38;;
57441;SDS011;43284;47.042;15.498;2023-10-19T12:28:45;8.02;;;4.28;;
57441;SDS011;43284;47.042;15.498;2023-10-19T12:31:12;7.70;;;4.32;;
57441;SDS011;43284;47.042;15.498;2023-10-19T12:33:40;9.40;;;4.05;;
57441;SDS011;43284;47.042;15.498;2023-10-19T12:36:07;9.13;;;4.72;;
57441;SDS011;43284;47.042;15.498;2023-10-19T12:38:56;8.35;;;4.90;;
57441;SDS011;43284;47.042;15.498;2023-10-19T12:41:22;8.57;;;4.63;;
57441;SDS011;43284;47.042;15.498;2023-10-19T12:43:49;7.00;;;4.60;;
57441;SDS011;43284;47.042;15.498;2023-10-19T12:46:22;8.17;;;4.20;;
57441;SDS011;43284;47.042;15.498;2023-10-19T12:48:50;10.52;;;4.18;;
57441;SDS011;43284;47.042;15.498;2023-10-19T12:51:16;11.57;;;4.43;;
57441;SDS011;43284;47.042;15.498;2023-10-19T12:53:48;12.63;;;4.20;;
57441;SDS011;43284;47.042;15.498;2023-10-19T12:56:13;11.00;;;4.38;;
57441;SDS011;43284;47.042;15.498;2023-10-19T12:58:41;8.93;;;3.95;;
57441;SDS011;43284;47.042;15.498;2023-10-19T13:01:06;7.22;;;4.25;;
57441;SDS011;43284;47.042;15.498;2023-10-19T13:03:35;8.00;;;3.72;;
57441;SDS011;43284;47.042;15.498;2023-10-19T13:06:04;6.00;;;3.72;;
57441;SDS011;43284;47.042;15.498;2023-10-19T13:08:30;6.20;;;3.35;;
57441;SDS011;43284;47.042;15.498;2023-10-19T13:10:55;8.50;;;3.90;;
57441;SDS011;43284;47.042;15.498;2023-10-19T13:13:21;9.80;;;4.03;;
57441;SDS011;43284;47.042;15.498;2023-10-19T13:15:49;7.43;;;4.00;;
57441;SDS011;43284;47.042;15.498;2023-10-19T13:18:15;6.00;;;4.13;;
57441;SDS011;43284;47.042;15.498;2023-10-19T13:20:52;7.57;;;4.57;;
57441;SDS011;43284;47.042;15.498;2023-10-19T13:23:19;6.60;;;3.92;;
57441;SDS011;43284;47.042;15.498;2023-10-19T13:25:49;6.45;;;3.40;;
57441;SDS011;43284;47.042;15.498;2023-10-19T13:28:17;7.70;;;3.83;;
57441;SDS011;43284;47.042;15.498;2023-10-19T13:30:48;7.70;;;3.65;;
57441;SDS011;43284;47.042;15.498;2023-10-19T13:33:15;7.22;;;3.53;;
57441;SDS011;43284;47.042;15.498;2023-10-19T13:35:42;8.65;;;3.72;;
57441;SDS011;43284;47.042;15.498;2023-10-19T13:38:09;6.70;;;3.30;;
57441;SDS011;43284;47.042;15.498;2023-10-19T13:40:37;8.85;;;4.00;;
57441;SDS011;43284;47.042;15.498;2023-10-19T13:43:03;8.27;;;4.18;;
57441;SDS011;43284;47.042;15.498;2023-10-19T13:45:31;7.28;;;3.80;;
57441;SDS011;43284;47.042;15.498;2023-10-19T13:48:04;15.82;;;3.95;;
57441;SDS011;43284;47.042;15.498;2023-10-19T13:50:31;5.35;;;3.47;;
57441;SDS011;43284;47.042;15.498;2023-10-19T13:52:58;5.50;;;3.55;;
57441;SDS011;43284;47.042;15.498;2023-10-19T13:55:29;8.02;;;3.90;;
57441;SDS011;43284;47.042;15.498;2023-10-19T13:57:56;5.72;;;3.63;;
57441;SDS011;43284;47.042;15.498;2023-10-19T14:00:22;7.82;;;4.68;;
57441;SDS011;43284;47.042;15.498;2023-10-19T14:02:52;7.60;;;3.33;;
57441;SDS011;43284;47.042;15.498;2023-10-19T14:05:19;5.97;;;3.50;;
57441;SDS011;43284;47.042;15.498;2023-10-19T14:07:45;7.53;;;3.53;;
57441;SDS011;43284;47.042;15.498;2023-10-19T14:10:14;5.82;;;3.70;;
57441;SDS011;43284;47.042;15.498;2023-10-19T14:12:41;4.35;;;2.90;;
57441;SDS011;43284;47.042;15.498;2023-10-19T14:15:17;6.97;;;3.10;;
57441;SDS011;43284;47.042;15.498;2023-10-19T14:17:44;5.57;;;3.30;;
57441;SDS011;43284;47.042;15.498;2023-10-19T14:20:12;6.13;;;3.17;;
57441;SDS011;43284;47.042;15.498;2023-10-19T14:22:48;4.72;;;3.10;;
57441;SDS011;43284;47.042;15.498;2023-10-19T14:25:14;5.88;;;3.22;;
57441;SDS011;43284;47.042;15.498;2023-10-19T14:27:44;9.07;;;3.35;;
57441;SDS011;43284;47.042;15.498;2023-10-19T14:30:17;5.03;;;3.38;;
57441;SDS011;43284;47.042;15.498;2023-10-19T14:32:47;6.75;;;3.15;;
57441;SDS011;43284;47.042;15.498;2023-10-19T14:35:14;10.52;;;3.40;;
57441;SDS011;43284;47.042;15.498;2023-10-19T14:37:42;5.70;;;3.38;;
57441;SDS011;43284;47.042;15.498;2023-10-19T14:40:09;5.55;;;2.95;;
57441;SDS011;43284;47.042;15.498;2023-10-19T14:42:41;8.00;;;3.28;;
57441;SDS011;43284;47.042;15.498;2023-10-19T14:45:08;6.18;;;2.70;;
57441;SDS011;43284;47.042;15.498;2023-10-19T14:47:35;7.00;;;3.35;;
57441;SDS011;43284;47.042;15.498;2023-10-19T14:50:02;6.97;;;3.55;;
57441;SDS011;43284;47.042;15.498;2023-10-19T14:52:29;3.83;;;2.75;;